sensor_id;sensor_type;location;lat;lon;timestamp;pressure;altitude;pressure_sealevel;temperature;humidity
70902;BME280;58548;47.210;8.618;2022-07-04T00:00:13;94409.84;;;28.35;36.40
70902;BME280;58548;47.210;8.618;2022-07-04T00:02:41;94369.16;;;28.08;36.51
70902;BME280;58548;47.210;8.618;2022-07-04T00:05:11;94404.34;;;28.26;36.12
70902;BME280;58548;47.210;8.618;2022-07-04T00:07:41;94323.50;;;27.75;35.98
70902;BME280;58548;47.210;8.618;2022-07-04T00:10:11;94368.84;;;27.96;36.05
70902;BME280;58548;47.210;8.618;2022-07-04T00:12:40;94392.50;;;28.08;37.04
70902;BME280;58548;47.210;8.618;2022-07-04T00:15:08;94400.25;;;28.14;36.34
70902;BME280;58548;47.210;8.618;2022-07-04T00:17:37;94415.75;;;28.18;37.29
70902;BME280;58548;47.210;8.618;2022-07-04T00:20:09;94413.78;;;28.04;37.39
70902;BME280;58548;47.210;8.618;2022-07-04T00:22:35;94420.16;;;28.08;36.84
70902;BME280;58548;47.210;8.618;2022-07-04T00:25:05;94410.00;;;28.05;37.00
70902;BME280;58548;47.210;8.618;2022-07-04T00:27:31;94405.47;;;28.06;37.36
70902;BME280;58548;47.210;8.618;2022-07-04T00:30:00;94417.56;;;28.03;37.39
70902;BME280;58548;47.210;8.618;2022-07-04T00:32:26;94412.13;;;28.08;37.60
70902;BME280;58548;47.210;8.618;2022-07-04T00:34:52;94425.53;;;28.08;37.13
70902;BME280;58548;47.210;8.618;2022-07-04T00:37:20;94425.59;;;28.03;37.28
70902;BME280;58548;47.210;8.618;2022-07-04T00:39:46;94412.34;;;27.93;37.60
70902;BME280;58548;47.210;8.618;2022-07-04T00:42:12;94419.84;;;27.96;37.35
70902;BME280;58548;47.210;8.618;2022-07-04T00:44:40;94388.84;;;27.65;37.92
70902;BME280;58548;47.210;8.618;2022-07-04T00:47:09;94403.41;;;27.78;37.33
70902;BME280;58548;47.210;8.618;2022-07-04T00:49:35;94424.81;;;27.83;37.67
70902;BME280;58548;47.210;8.618;2022-07-04T00:52:06;94406.91;;;27.79;37.44
70902;BME280;58548;47.210;8.618;2022-07-04T00:54:32;94340.63;;;27.22;38.25
70902;BME280;58548;47.210;8.618;2022-07-04T00:57:03;94407.47;;;27.57;38.14
70902;BME280;58548;47.210;8.618;2022-07-04T00:59:29;94342.56;;;27.16;38.41
70902;BME280;58548;47.210;8.618;2022-07-04T01:01:58;94346.91;;;27.12;38.05
70902;BME280;58548;47.210;8.618;2022-07-04T01:04:26;94418.31;;;27.51;38.66
70902;BME280;58548;47.210;8.618;2022-07-04T01:06:54;94394.88;;;27.33;37.93
70902;BME280;58548;47.210;8.618;2022-07-04T01:09:23;94414.03;;;27.50;38.05
70902;BME280;58548;47.210;8.618;2022-07-04T01:11:52;94417.28;;;27.47;38.15
70902;BME280;58548;47.210;8.618;2022-07-04T01:14:18;94337.25;;;26.92;38.73
70902;BME280;58548;47.210;8.618;2022-07-04T01:16:44;94402.72;;;27.29;38.86
70902;BME280;58548;47.210;8.618;2022-07-04T01:19:10;94392.88;;;27.24;38.99
70902;BME280;58548;47.210;8.618;2022-07-04T01:21:36;94368.94;;;27.09;38.89
70902;BME280;58548;47.210;8.618;2022-07-04T01:24:05;94387.84;;;27.18;38.49
70902;BME280;58548;47.210;8.618;2022-07-04T01:26:31;94376.72;;;27.05;39.41
70902;BME280;58548;47.210;8.618;2022-07-04T01:28:56;94336.06;;;26.74;39.88
70902;BME280;58548;47.210;8.618;2022-07-04T01:31:27;94333.63;;;26.77;39.74
70902;BME280;58548;47.210;8.618;2022-07-04T01:33:53;94383.94;;;27.10;39.04
70902;BME280;58548;47.210;8.618;2022-07-04T01:36:26;94415.09;;;27.25;39.32
70902;BME280;58548;47.210;8.618;2022-07-04T01:38:52;94419.66;;;27.24;39.63
70902;BME280;58548;47.210;8.618;2022-07-04T01:41:21;94343.03;;;26.75;39.21
70902;BME280;58548;47.210;8.618;2022-07-04T01:43:47;94341.44;;;26.74;38.86
70902;BME280;58548;47.210;8.618;2022-07-04T01:46:13;94420.25;;;27.21;38.56
70902;BME280;58548;47.210;8.618;2022-07-04T01:48:41;94333.22;;;26.65;38.57
70902;BME280;58548;47.210;8.618;2022-07-04T01:51:07;94413.78;;;27.22;38.62
70902;BME280;58548;47.210;8.618;2022-07-04T01:53:36;94342.25;;;26.74;38.50
70902;BME280;58548;47.210;8.618;2022-07-04T01:56:04;94427.19;;;27.22;38.99
70902;BME280;58548;47.210;8.618;2022-07-04T01:58:30;94449.09;;;27.30;38.93
70902;BME280;58548;47.210;8.618;2022-07-04T02:01:01;94400.16;;;26.94;38.27
70902;BME280;58548;47.210;8.618;2022-07-04T02:03:45;94466.28;;;27.29;37.93
70902;BME280;58548;47.210;8.618;2022-07-04T02:06:13;94442.81;;;27.15;36.76
70902;BME280;58548;47.210;8.618;2022-07-04T02:08:39;94458.91;;;27.15;37.23
70902;BME280;58548;47.210;8.618;2022-07-04T02:11:26;94535.72;;;27.54;37.29
70902;BME280;58548;47.210;8.618;2022-07-04T02:13:52;94540.00;;;27.56;38.60
70902;BME280;58548;47.210;8.618;2022-07-04T02:16:20;94550.56;;;27.71;37.86
70902;BME280;58548;47.210;8.618;2022-07-04T02:18:51;94486.31;;;27.36;38.40
70902;BME280;58548;47.210;8.618;2022-07-04T02:21:22;94520.09;;;27.62;38.11
70902;BME280;58548;47.210;8.618;2022-07-04T02:23:50;94571.91;;;27.81;38.65
70902;BME280;58548;47.210;8.618;2022-07-04T02:26:21;94508.41;;;27.52;38.44
70902;BME280;58548;47.210;8.618;2022-07-04T02:28:46;94537.31;;;27.56;38.01
70902;BME280;58548;47.210;8.618;2022-07-04T02:31:15;94619.75;;;27.98;38.22
70902;BME280;58548;47.210;8.618;2022-07-04T02:33:40;94551.81;;;27.54;38.02
70902;BME280;58548;47.210;8.618;2022-07-04T02:36:06;94615.91;;;27.80;38.41
70902;BME280;58548;47.210;8.618;2022-07-04T02:38:35;94642.34;;;27.92;39.19
70902;BME280;58548;47.210;8.618;2022-07-04T02:41:03;94589.97;;;27.51;39.30
70902;BME280;58548;47.210;8.618;2022-07-04T02:43:31;94562.31;;;27.21;39.74
70902;BME280;58548;47.210;8.618;2022-07-04T02:45:57;94585.00;;;27.34;40.71
70902;BME280;58548;47.210;8.618;2022-07-04T02:48:27;94666.34;;;27.83;39.93
70902;BME280;58548;47.210;8.618;2022-07-04T02:50:56;94665.66;;;27.73;41.48
70902;BME280;58548;47.210;8.618;2022-07-04T02:53:24;94624.47;;;27.29;41.82
70902;BME280;58548;47.210;8.618;2022-07-04T02:55:52;94610.28;;;27.23;41.01
70902;BME280;58548;47.210;8.618;2022-07-04T02:58:18;94606.50;;;27.29;41.56
70902;BME280;58548;47.210;8.618;2022-07-04T03:00:46;94622.38;;;27.20;42.28
70902;BME280;58548;47.210;8.618;2022-07-04T03:03:14;94610.63;;;27.16;42.17
70902;BME280;58548;47.210;8.618;2022-07-04T03:05:42;94620.00;;;27.19;42.71
70902;BME280;58548;47.210;8.618;2022-07-04T03:08:08;94678.19;;;27.53;42.12
70902;BME280;58548;47.210;8.618;2022-07-04T03:10:37;94671.44;;;27.56;42.13
70902;BME280;58548;47.210;8.618;2022-07-04T03:13:03;94605.38;;;27.06;43.26
70902;BME280;58548;47.210;8.618;2022-07-04T03:15:29;94568.59;;;26.72;43.10
70902;BME280;58548;47.210;8.618;2022-07-04T03:17:57;94665.44;;;27.34;44.02
70902;BME280;58548;47.210;8.618;2022-07-04T03:20:23;94588.31;;;26.91;43.39
70902;BME280;58548;47.210;8.618;2022-07-04T03:22:51;94675.84;;;27.41;44.00
70902;BME280;58548;47.210;8.618;2022-07-04T03:25:20;94589.91;;;26.92;44.01
70902;BME280;58548;47.210;8.618;2022-07-04T03:27:46;94652.00;;;27.39;44.42
70902;BME280;58548;47.210;8.618;2022-07-04T03:30:12;94634.16;;;27.24;43.53
70902;BME280;58548;47.210;8.618;2022-07-04T03:32:40;94562.69;;;26.75;43.18
70902;BME280;58548;47.210;8.618;2022-07-04T03:35:06;94634.38;;;27.28;43.42
70902;BME280;58548;47.210;8.618;2022-07-04T03:37:32;94616.53;;;27.13;43.17
70902;BME280;58548;47.210;8.618;2022-07-04T03:39:58;94633.94;;;27.21;43.41
70902;BME280;58548;47.210;8.618;2022-07-04T03:42:26;94566.41;;;26.84;43.38
70902;BME280;58548;47.210;8.618;2022-07-04T03:44:55;94523.75;;;26.53;43.19
70902;BME280;58548;47.210;8.618;2022-07-04T03:47:26;94522.72;;;26.49;42.93
70902;BME280;58548;47.210;8.618;2022-07-04T03:49:54;94573.84;;;26.92;43.03
70902;BME280;58548;47.210;8.618;2022-07-04T03:52:20;94565.28;;;26.90;43.65
70902;BME280;58548;47.210;8.618;2022-07-04T03:54:46;94530.72;;;26.54;43.64
70902;BME280;58548;47.210;8.618;2022-07-04T03:57:14;94491.97;;;26.01;44.00
70902;BME280;58548;47.210;8.618;2022-07-04T03:59:40;94556.09;;;26.22;44.16
70902;BME280;58548;47.210;8.618;2022-07-04T04:02:08;94526.16;;;26.10;43.20
70902;BME280;58548;47.210;8.618;2022-07-04T04:04:34;94537.75;;;26.45;43.12
70902;BME280;58548;47.210;8.618;2022-07-04T04:07:21;94530.81;;;26.44;43.22
70902;BME280;58548;47.210;8.618;2022-07-04T04:09:49;94514.44;;;26.45;43.24
70902;BME280;58548;47.210;8.618;2022-07-04T04:12:17;94513.25;;;26.62;42.56
70902;BME280;58548;47.210;8.618;2022-07-04T04:14:46;94496.97;;;26.53;42.96
70902;BME280;58548;47.210;8.618;2022-07-04T04:17:11;94375.00;;;25.67;43.10
70902;BME280;58548;47.210;8.618;2022-07-04T04:19:37;94512.34;;;26.72;43.23
70902;BME280;58548;47.210;8.618;2022-07-04T04:22:03;94500.00;;;26.76;42.33
70902;BME280;58548;47.210;8.618;2022-07-04T04:24:29;94527.75;;;26.90;42.52
70902;BME280;58548;47.210;8.618;2022-07-04T04:26:55;94455.38;;;26.31;42.68
70902;BME280;58548;47.210;8.618;2022-07-04T04:29:23;94504.97;;;26.58;43.11
70902;BME280;58548;47.210;8.618;2022-07-04T04:31:49;94436.25;;;26.14;43.39
70902;BME280;58548;47.210;8.618;2022-07-04T04:34:14;94514.22;;;26.42;43.92
70902;BME280;58548;47.210;8.618;2022-07-04T04:36:45;94532.88;;;26.52;42.83
70902;BME280;58548;47.210;8.618;2022-07-04T04:39:13;94545.13;;;26.63;43.04
70902;BME280;58548;47.210;8.618;2022-07-04T04:41:41;94446.84;;;25.84;43.83
70902;BME280;58548;47.210;8.618;2022-07-04T04:44:07;94535.94;;;26.35;43.82
70902;BME280;58548;47.210;8.618;2022-07-04T04:46:35;94593.78;;;26.71;44.64
70902;BME280;58548;47.210;8.618;2022-07-04T04:49:01;94531.47;;;26.25;44.02
70902;BME280;58548;47.210;8.618;2022-07-04T04:51:29;94551.50;;;26.33;43.96
70902;BME280;58548;47.210;8.618;2022-07-04T04:53:55;94628.03;;;26.84;43.81
70902;BME280;58548;47.210;8.618;2022-07-04T04:56:21;94636.59;;;26.86;44.28
70902;BME280;58548;47.210;8.618;2022-07-04T04:58:50;94558.16;;;26.36;43.95
70902;BME280;58548;47.210;8.618;2022-07-04T05:01:20;94649.47;;;26.84;44.22
70902;BME280;58548;47.210;8.618;2022-07-04T05:03:48;94637.69;;;26.85;44.93
70902;BME280;58548;47.210;8.618;2022-07-04T05:06:17;94564.03;;;26.38;43.68
70902;BME280;58548;47.210;8.618;2022-07-04T05:08:44;94645.16;;;26.88;43.96
70902;BME280;58548;47.210;8.618;2022-07-04T05:11:12;94562.94;;;26.44;42.94
70902;BME280;58548;47.210;8.618;2022-07-04T05:13:41;94600.53;;;26.68;43.40
70902;BME280;58548;47.210;8.618;2022-07-04T05:16:06;94619.72;;;26.86;43.16
70902;BME280;58548;47.210;8.618;2022-07-04T05:18:38;94613.03;;;26.83;43.70
70902;BME280;58548;47.210;8.618;2022-07-04T05:21:06;94526.06;;;26.30;43.00
70902;BME280;58548;47.210;8.618;2022-07-04T05:23:34;94615.97;;;26.87;43.87
70902;BME280;58548;47.210;8.618;2022-07-04T05:26:00;94591.66;;;26.73;44.10
70902;BME280;58548;47.210;8.618;2022-07-04T05:28:26;94572.97;;;26.62;43.89
70902;BME280;58548;47.210;8.618;2022-07-04T05:30:57;94603.94;;;26.84;43.98
70902;BME280;58548;47.210;8.618;2022-07-04T05:33:22;94530.88;;;26.33;43.66
70902;BME280;58548;47.210;8.618;2022-07-04T05:35:48;94619.19;;;26.84;44.24
70902;BME280;58548;47.210;8.618;2022-07-04T05:38:14;94625.59;;;26.88;43.70
70902;BME280;58548;47.210;8.618;2022-07-04T05:40:42;94553.81;;;26.45;43.89
70902;BME280;58548;47.210;8.618;2022-07-04T05:43:09;94582.28;;;26.70;44.10
70902;BME280;58548;47.210;8.618;2022-07-04T05:45:37;94625.28;;;26.94;44.23
70902;BME280;58548;47.210;8.618;2022-07-04T05:48:06;94613.25;;;26.92;44.10
70902;BME280;58548;47.210;8.618;2022-07-04T05:50:32;94550.84;;;26.46;44.37
70902;BME280;58548;47.210;8.618;2022-07-04T05:52:58;94621.06;;;26.88;43.52
70902;BME280;58548;47.210;8.618;2022-07-04T05:55:28;94624.81;;;26.87;44.04
70902;BME280;58548;47.210;8.618;2022-07-04T05:57:57;94535.66;;;26.37;43.54
70902;BME280;58548;47.210;8.618;2022-07-04T06:00:25;94600.19;;;26.80;43.59
70902;BME280;58548;47.210;8.618;2022-07-04T06:02:51;94620.00;;;26.84;44.21
70902;BME280;58548;47.210;8.618;2022-07-04T06:05:19;94544.44;;;26.42;44.68
70902;BME280;58548;47.210;8.618;2022-07-04T06:07:47;94621.78;;;26.99;44.17
70902;BME280;58548;47.210;8.618;2022-07-04T06:10:14;94619.28;;;27.08;44.05
70902;BME280;58548;47.210;8.618;2022-07-04T06:12:45;94539.78;;;26.58;44.19
70902;BME280;58548;47.210;8.618;2022-07-04T06:15:11;94559.81;;;26.66;43.94
70902;BME280;58548;47.210;8.618;2022-07-04T06:17:41;94619.44;;;26.87;44.06
70902;BME280;58548;47.210;8.618;2022-07-04T06:20:12;94580.09;;;26.77;44.61
70902;BME280;58548;47.210;8.618;2022-07-04T06:22:43;94549.91;;;26.67;44.83
70902;BME280;58548;47.210;8.618;2022-07-04T06:25:18;94613.25;;;27.21;43.75
70902;BME280;58548;47.210;8.618;2022-07-04T06:27:48;94517.03;;;26.90;44.36
70902;BME280;58548;47.210;8.618;2022-07-04T06:30:15;94579.78;;;27.48;44.35
70902;BME280;58548;47.210;8.618;2022-07-04T06:32:48;94562.06;;;27.52;43.96
70902;BME280;58548;47.210;8.618;2022-07-04T06:35:21;94486.53;;;27.16;43.50
70902;BME280;58548;47.210;8.618;2022-07-04T06:38:05;94537.97;;;27.47;42.90
70902;BME280;58548;47.210;8.618;2022-07-04T06:40:32;94556.38;;;27.54;42.64
70902;BME280;58548;47.210;8.618;2022-07-04T06:42:59;94481.34;;;27.24;41.98
70902;BME280;58548;47.210;8.618;2022-07-04T06:45:27;94502.56;;;27.45;42.49
70902;BME280;58548;47.210;8.618;2022-07-04T06:47:57;94541.03;;;28.03;42.77
70902;BME280;58548;47.210;8.618;2022-07-04T06:50:26;94528.69;;;28.02;42.96
70902;BME280;58548;47.210;8.618;2022-07-04T06:52:52;94515.94;;;27.50;43.45
70902;BME280;58548;47.210;8.618;2022-07-04T06:55:20;94517.44;;;27.81;43.56
70902;BME280;58548;47.210;8.618;2022-07-04T06:57:46;94428.66;;;27.58;42.76
70902;BME280;58548;47.210;8.618;2022-07-04T07:00:12;94504.28;;;28.42;43.39
70902;BME280;58548;47.210;8.618;2022-07-04T07:02:41;94505.16;;;28.70;43.42
70902;BME280;58548;47.210;8.618;2022-07-04T07:05:07;94488.91;;;28.81;42.72
70902;BME280;58548;47.210;8.618;2022-07-04T07:07:36;94404.59;;;28.77;40.72
70902;BME280;58548;47.210;8.618;2022-07-04T07:10:04;94453.81;;;29.33;39.85
70902;BME280;58548;47.210;8.618;2022-07-04T07:12:33;94434.19;;;29.46;39.93
70902;BME280;58548;47.210;8.618;2022-07-04T07:14:59;94354.41;;;29.14;40.08
70902;BME280;58548;47.210;8.618;2022-07-04T07:17:28;94412.66;;;29.60;40.25
70902;BME280;58548;47.210;8.618;2022-07-04T07:19:54;94352.38;;;29.33;39.87
70902;BME280;58548;47.210;8.618;2022-07-04T07:22:23;94393.59;;;29.93;39.16
70902;BME280;58548;47.210;8.618;2022-07-04T07:24:49;94313.44;;;29.90;39.79
70902;BME280;58548;47.210;8.618;2022-07-04T07:27:17;94365.13;;;30.47;38.41
70902;BME280;58548;47.210;8.618;2022-07-04T07:29:43;94367.72;;;30.83;38.27
70902;BME280;58548;47.210;8.618;2022-07-04T07:32:09;94376.81;;;31.05;38.40
70902;BME280;58548;47.210;8.618;2022-07-04T07:34:38;94390.53;;;31.18;36.79
70902;BME280;58548;47.210;8.618;2022-07-04T07:37:06;94394.06;;;31.27;36.17
70902;BME280;58548;47.210;8.618;2022-07-04T07:39:32;94384.72;;;31.42;36.18
70902;BME280;58548;47.210;8.618;2022-07-04T07:42:00;94412.19;;;31.53;35.92
70902;BME280;58548;47.210;8.618;2022-07-04T07:44:29;94417.59;;;31.53;36.72
70902;BME280;58548;47.210;8.618;2022-07-04T07:46:57;94443.88;;;32.05;36.22
70902;BME280;58548;47.210;8.618;2022-07-04T07:49:25;94399.22;;;32.08;34.80
70902;BME280;58548;47.210;8.618;2022-07-04T07:51:51;94390.00;;;32.09;34.26
70902;BME280;58548;47.210;8.618;2022-07-04T07:54:17;94467.09;;;32.32;34.27
70902;BME280;58548;47.210;8.618;2022-07-04T07:56:43;94455.19;;;32.33;34.20
70902;BME280;58548;47.210;8.618;2022-07-04T07:59:09;94423.38;;;32.13;34.11
70902;BME280;58548;47.210;8.618;2022-07-04T08:01:40;94476.28;;;32.23;34.90
70902;BME280;58548;47.210;8.618;2022-07-04T08:04:06;94430.69;;;31.86;34.48
70902;BME280;58548;47.210;8.618;2022-07-04T08:06:51;94487.25;;;32.09;35.15
70902;BME280;58548;47.210;8.618;2022-07-04T08:09:17;94490.59;;;32.23;35.06
70902;BME280;58548;47.210;8.618;2022-07-04T08:11:42;94486.00;;;32.41;36.10
70902;BME280;58548;47.210;8.618;2022-07-04T08:14:11;94484.88;;;32.51;35.64
70902;BME280;58548;47.210;8.618;2022-07-04T08:16:36;94423.69;;;32.20;34.08
70902;BME280;58548;47.210;8.618;2022-07-04T08:19:03;94451.66;;;32.42;34.33
70902;BME280;58548;47.210;8.618;2022-07-04T08:21:29;94486.97;;;32.54;33.92
70902;BME280;58548;47.210;8.618;2022-07-04T08:23:57;94408.44;;;32.07;33.84
70902;BME280;58548;47.210;8.618;2022-07-04T08:26:23;94428.28;;;32.19;33.97
70902;BME280;58548;47.210;8.618;2022-07-04T08:28:49;94478.53;;;32.56;33.88
70902;BME280;58548;47.210;8.618;2022-07-04T08:31:19;94432.13;;;32.18;34.21
70902;BME280;58548;47.210;8.618;2022-07-04T08:33:45;94486.81;;;32.59;34.46
70902;BME280;58548;47.210;8.618;2022-07-04T08:36:15;94474.41;;;32.41;33.95
70902;BME280;58548;47.210;8.618;2022-07-04T08:38:43;94491.72;;;32.57;33.78
70902;BME280;58548;47.210;8.618;2022-07-04T08:41:09;94472.81;;;32.48;33.61
70902;BME280;58548;47.210;8.618;2022-07-04T08:43:37;94479.63;;;32.55;34.07
70902;BME280;58548;47.210;8.618;2022-07-04T08:46:05;94423.38;;;32.22;34.25
70902;BME280;58548;47.210;8.618;2022-07-04T08:48:32;94455.34;;;32.28;33.72
70902;BME280;58548;47.210;8.618;2022-07-04T08:51:27;94440.84;;;32.24;34.33
70902;BME280;58548;47.210;8.618;2022-07-04T08:53:57;94443.88;;;32.23;33.07
70902;BME280;58548;47.210;8.618;2022-07-04T08:56:24;94492.19;;;32.68;33.68
70902;BME280;58548;47.210;8.618;2022-07-04T08:59:09;94494.56;;;32.70;32.39
70902;BME280;58548;47.210;8.618;2022-07-04T09:01:39;94433.41;;;32.39;32.94
70902;BME280;58548;47.210;8.618;2022-07-04T09:04:08;94485.31;;;32.88;32.92
70902;BME280;58548;47.210;8.618;2022-07-04T09:06:35;94493.91;;;32.90;32.73
70902;BME280;58548;47.210;8.618;2022-07-04T09:09:03;94505.94;;;33.19;32.19
70902;BME280;58548;47.210;8.618;2022-07-04T09:11:29;94496.66;;;33.38;32.78
70902;BME280;58548;47.210;8.618;2022-07-04T09:13:59;94480.78;;;33.58;30.77
70902;BME280;58548;47.210;8.618;2022-07-04T09:16:30;94502.16;;;33.80;31.22
70902;BME280;58548;47.210;8.618;2022-07-04T09:18:56;94506.03;;;34.01;31.57
70902;BME280;58548;47.210;8.618;2022-07-04T09:21:23;94505.28;;;34.21;30.54
70902;BME280;58548;47.210;8.618;2022-07-04T09:24:10;94498.41;;;34.24;31.58
70902;BME280;58548;47.210;8.618;2022-07-04T09:26:40;94475.78;;;34.20;30.89
70902;BME280;58548;47.210;8.618;2022-07-04T09:29:11;94513.47;;;34.34;29.78
70902;BME280;58548;47.210;8.618;2022-07-04T09:31:40;94456.31;;;34.05;30.57
70902;BME280;58548;47.210;8.618;2022-07-04T09:34:07;94461.91;;;34.42;30.50
70902;BME280;58548;47.210;8.618;2022-07-04T09:36:40;94444.53;;;34.43;31.28
70902;BME280;58548;47.210;8.618;2022-07-04T09:42:02;94444.94;;;35.13;30.09
70902;BME280;58548;47.210;8.618;2022-07-04T09:44:43;94506.63;;;35.99;28.68
70902;BME280;58548;47.210;8.618;2022-07-04T09:47:20;94513.50;;;36.21;27.45
70902;BME280;58548;47.210;8.618;2022-07-04T09:50:03;94485.31;;;36.55;28.33
70902;BME280;58548;47.210;8.618;2022-07-04T09:55:29;94507.00;;;37.56;25.79
70902;BME280;58548;47.210;8.618;2022-07-04T09:58:01;94505.38;;;37.87;24.10
70902;BME280;58548;47.210;8.618;2022-07-04T10:00:30;94506.75;;;38.13;24.50
70902;BME280;58548;47.210;8.618;2022-07-04T10:05:41;94493.59;;;38.54;23.95
70902;BME280;58548;47.210;8.618;2022-07-04T10:08:07;94509.88;;;38.90;22.29
70902;BME280;58548;47.210;8.618;2022-07-04T10:10:38;94507.44;;;39.04;22.95
70902;BME280;58548;47.210;8.618;2022-07-04T10:13:14;94500.88;;;39.09;22.69
70902;BME280;58548;47.210;8.618;2022-07-04T10:15:42;94502.13;;;39.35;22.77
70902;BME280;58548;47.210;8.618;2022-07-04T10:18:10;94443.16;;;38.87;22.51
70902;BME280;58548;47.210;8.618;2022-07-04T10:20:36;94493.97;;;39.15;22.83
70902;BME280;58548;47.210;8.618;2022-07-04T10:23:07;94490.25;;;39.04;22.57
70902;BME280;58548;47.210;8.618;2022-07-04T10:25:36;94448.81;;;38.79;22.74
70902;BME280;58548;47.210;8.618;2022-07-04T10:28:02;94487.81;;;39.22;23.10
70902;BME280;58548;47.210;8.618;2022-07-04T10:30:31;94491.00;;;39.47;23.31
70902;BME280;58548;47.210;8.618;2022-07-04T10:33:03;94459.31;;;39.43;22.69
70902;BME280;58548;47.210;8.618;2022-07-04T10:38:28;94437.16;;;40.05;22.51
70902;BME280;58548;47.210;8.618;2022-07-04T10:41:05;94489.88;;;40.63;21.64
70902;BME280;58548;47.210;8.618;2022-07-04T10:49:05;94477.34;;;41.38;21.53
70902;BME280;58548;47.210;8.618;2022-07-04T10:51:38;94466.53;;;41.52;20.59
70902;BME280;58548;47.210;8.618;2022-07-04T10:54:12;94480.06;;;41.83;21.26
70902;BME280;58548;47.210;8.618;2022-07-04T10:59:34;94473.22;;;42.22;20.56
70902;BME280;58548;47.210;8.618;2022-07-04T11:07:54;94478.81;;;42.43;18.87
70902;BME280;58548;47.210;8.618;2022-07-04T11:18:04;94465.19;;;42.72;19.16
70902;BME280;58548;47.210;8.618;2022-07-04T11:20:33;94426.28;;;42.41;18.56
70902;BME280;58548;47.210;8.618;2022-07-04T11:25:38;94468.19;;;42.34;18.29
70902;BME280;58548;47.210;8.618;2022-07-04T11:28:27;94475.50;;;42.05;19.11
70902;BME280;58548;47.210;8.618;2022-07-04T11:30:56;94476.59;;;41.97;18.93
70902;BME280;58548;47.210;8.618;2022-07-04T11:33:26;94462.63;;;41.57;19.43
70902;BME280;58548;47.210;8.618;2022-07-04T11:36:04;94457.16;;;41.60;19.39
70902;BME280;58548;47.210;8.618;2022-07-04T11:41:30;94407.25;;;41.37;20.09
70902;BME280;58548;47.210;8.618;2022-07-04T11:44:20;94446.97;;;41.57;19.05
70902;BME280;58548;47.210;8.618;2022-07-04T11:49:44;94428.75;;;41.35;20.13
70902;BME280;58548;47.210;8.618;2022-07-04T11:52:17;94436.22;;;41.38;19.07
70902;BME280;58548;47.210;8.618;2022-07-04T11:54:45;94387.09;;;41.11;19.61
70902;BME280;58548;47.210;8.618;2022-07-04T11:57:29;94402.91;;;41.28;19.49
70902;BME280;58548;47.210;8.618;2022-07-04T12:00:05;94439.66;;;41.24;19.43
70902;BME280;58548;47.210;8.618;2022-07-04T12:02:32;94414.25;;;40.85;20.29
70902;BME280;58548;47.210;8.618;2022-07-04T12:05:03;94395.25;;;40.62;20.46
70902;BME280;58548;47.210;8.618;2022-07-04T12:07:32;94388.63;;;40.29;20.28
70902;BME280;58548;47.210;8.618;2022-07-04T12:12:34;94428.44;;;40.23;21.32
70902;BME280;58548;47.210;8.618;2022-07-04T12:15:04;94424.44;;;40.17;21.27
70902;BME280;58548;47.210;8.618;2022-07-04T12:17:33;94414.19;;;40.10;22.24
70902;BME280;58548;47.210;8.618;2022-07-04T12:22:35;94404.44;;;40.13;22.04
70902;BME280;58548;47.210;8.618;2022-07-04T12:25:04;94394.69;;;40.15;22.31
70902;BME280;58548;47.210;8.618;2022-07-04T12:27:35;94391.31;;;40.22;21.98
70902;BME280;58548;47.210;8.618;2022-07-04T12:30:03;94341.25;;;39.57;21.39
70902;BME280;58548;47.210;8.618;2022-07-04T12:32:50;94369.34;;;39.57;22.00
70902;BME280;58548;47.210;8.618;2022-07-04T12:35:33;94392.13;;;39.38;22.88
70902;BME280;58548;47.210;8.618;2022-07-04T12:38:05;94382.97;;;39.54;23.67
70902;BME280;58548;47.210;8.618;2022-07-04T12:40:34;94369.81;;;39.63;23.95
70902;BME280;58548;47.210;8.618;2022-07-04T12:43:00;94310.59;;;39.40;23.54
70902;BME280;58548;47.210;8.618;2022-07-04T12:45:44;94348.75;;;39.63;23.40
70902;BME280;58548;47.210;8.618;2022-07-04T12:48:18;94355.91;;;39.72;22.50
70902;BME280;58548;47.210;8.618;2022-07-04T12:50:45;94335.56;;;39.42;22.12
70902;BME280;58548;47.210;8.618;2022-07-04T12:53:16;94349.22;;;39.42;22.74
70902;BME280;58548;47.210;8.618;2022-07-04T12:55:44;94338.41;;;39.22;23.79
70902;BME280;58548;47.210;8.618;2022-07-04T12:58:13;94346.00;;;39.33;23.49
70902;BME280;58548;47.210;8.618;2022-07-04T13:00:41;94287.88;;;39.09;22.48
70902;BME280;58548;47.210;8.618;2022-07-04T13:03:07;94267.66;;;39.14;22.58
70902;BME280;58548;47.210;8.618;2022-07-04T13:05:37;94267.44;;;38.96;22.95
70902;BME280;58548;47.210;8.618;2022-07-04T13:08:03;94337.25;;;39.24;23.38
70902;BME280;58548;47.210;8.618;2022-07-04T13:10:32;94296.97;;;38.90;23.39
70902;BME280;58548;47.210;8.618;2022-07-04T13:13:02;94358.50;;;39.34;23.11
70902;BME280;58548;47.210;8.618;2022-07-04T13:15:33;94301.59;;;39.13;22.53
70902;BME280;58548;47.210;8.618;2022-07-04T13:17:59;94352.50;;;39.51;22.20
70902;BME280;58548;47.210;8.618;2022-07-04T13:20:27;94335.91;;;39.37;22.54
70902;BME280;58548;47.210;8.618;2022-07-04T13:22:58;94360.50;;;39.37;23.46
70902;BME280;58548;47.210;8.618;2022-07-04T13:25:24;94298.19;;;38.93;23.51
70902;BME280;58548;47.210;8.618;2022-07-04T13:27:50;94356.56;;;39.11;23.24
70902;BME280;58548;47.210;8.618;2022-07-04T13:30:18;94303.75;;;38.76;23.00
70902;BME280;58548;47.210;8.618;2022-07-04T13:32:48;94345.44;;;38.97;23.88
70902;BME280;58548;47.210;8.618;2022-07-04T13:35:17;94356.03;;;39.02;23.17
70902;BME280;58548;47.210;8.618;2022-07-04T13:37:45;94345.47;;;38.77;23.92
70902;BME280;58548;47.210;8.618;2022-07-04T13:40:11;94310.81;;;38.35;24.20
70902;BME280;58548;47.210;8.618;2022-07-04T13:42:37;94338.41;;;38.29;24.50
70902;BME280;58548;47.210;8.618;2022-07-04T13:45:24;94301.97;;;37.79;24.41
70902;BME280;58548;47.210;8.618;2022-07-04T13:47:54;94357.81;;;38.05;24.38
70902;BME280;58548;47.210;8.618;2022-07-04T13:50:21;94372.16;;;38.01;24.33
70902;BME280;58548;47.210;8.618;2022-07-04T13:52:49;94314.88;;;37.42;25.28
70902;BME280;58548;47.210;8.618;2022-07-04T13:55:15;94372.31;;;37.53;25.30